Time;durP1;ratioP1;P1;durP2;ratioP2;P2;SDS_P1;SDS_P2;PMS_P1;PMS_P2;Temp;Humidity;BMP_temperature;BMP_pressure;BME280_temperature;BME280_humidity;BME280_pressure;Samples;Min_cycle;Max_cycle;Signal;HPM_P1;HPM_P2
2022/03/22 00:00:47;;;;;;;;;;;;;;;5.41;30.54;101601.72;5299543;27;32525;-96
2022/03/22 00:04:16;;;;;;;;;;;;;;;5.48;30.25;101601.12;5298698;27;32754;-93
2022/03/22 00:07:05;;;;;;;;;;;;;;;5.53;30.20;101603.09;5320645;26;33934;-92
2022/03/22 00:09:36;;;;;;;;;;;;;;;5.63;30.23;101595.69;5302628;27;32804;-95
2022/03/22 00:12:28;;;;;;;;;;;;;;;5.39;30.59;101601.69;5304468;27;32093;-93
2022/03/22 00:15:19;;;;;;;;;;;;;;;5.28;30.89;101602.94;5297285;27;34408;-94
2022/03/22 00:18:47;;;;;;;;;;;;;;;5.34;30.62;101606.66;5323161;27;34143;-93
2022/03/22 00:22:18;;;;;;;;;;;;;;;5.32;30.77;101604.84;5303504;27;32735;-94
2022/03/22 00:25:11;;;;;;;;;;;;;;;5.31;30.97;101600.47;5315815;27;32877;-94
2022/03/22 00:28:03;;;;;;;;;;;;;;;5.14;31.61;101600.69;5304553;27;32973;-96
2022/03/22 00:31:31;;;;;;;;;;;;;;;5.05;31.79;101599.44;5323566;27;33561;-91
2022/03/22 00:34:44;;;;;;;;;;;;;;;5.12;31.62;101604.03;5320210;27;34213;-95
2022/03/22 00:37:50;;;;;;;;;;;;;;;5.13;31.59;101601.53;5298591;27;32202;-93
2022/03/22 00:41:19;;;;;;;;;;;;;;;5.03;31.60;101601.12;5319298;27;34157;-94
2022/03/22 00:44:28;;;;;;;;;;;;;;;4.99;31.12;101600.09;5318042;27;33428;-96
2022/03/22 00:47:18;;;;;;;;;;;;;;;5.09;30.95;101602.22;5297831;27;34122;-96
2022/03/22 00:50:11;;;;;;;;;;;;;;;5.15;30.90;101601.59;5296768;27;32682;-96
2022/03/22 00:52:41;;;;;;;;;;;;;;;5.30;31.00;101599.63;5283835;27;34403;-96
2022/03/22 00:56:10;;;;;;;;;;;;;;;5.29;31.29;101595.31;5301619;27;33000;-96
2022/03/22 01:00:05;;;;;;;;;;;;;;;5.07;31.90;101592.69;5296967;27;33037;-96
2022/03/22 01:03:36;;;;;;;;;;;;;;;5.14;31.57;101592.09;5297954;27;32178;-96
2022/03/22 01:06:47;;;;;;;;;;;;;;;5.25;31.02;101588.28;5297788;27;33385;-96
2022/03/22 01:09:16;;;;;;;;;;;;;;;5.20;31.01;101583.78;5297250;27;33109;-96
2022/03/22 01:11:47;;;;;;;;;;;;;;;5.17;30.95;101594.81;5317866;27;34632;-96
2022/03/22 01:14:16;;;;;;;;;;;;;;;5.07;31.07;101587.53;5298382;27;33733;-96
2022/03/22 01:17:09;;;;;;;;;;;;;;;5.21;30.92;101588.09;5303153;27;34402;-96
2022/03/22 01:19:58;;;;;;;;;;;;;;;5.19;30.84;101582.00;5303769;27;33264;-96
2022/03/22 01:23:28;;;;;;;;;;;;;;;4.95;31.25;101580.19;5298751;27;33190;-96
2022/03/22 01:26:02;;;;;;;;;;;;;;;4.69;31.91;101586.88;5303181;27;32373;-96
2022/03/22 01:29:15;;;;;;;;;;;;;;;4.77;31.96;101580.34;5303370;27;33375;-96
2022/03/22 01:32:05;;;;;;;;;;;;;;;4.98;31.45;101582.00;5300011;27;33264;-96
2022/03/22 01:35:35;;;;;;;;;;;;;;;4.83;31.56;101583.19;5303114;27;35070;-96
2022/03/22 01:39:25;;;;;;;;;;;;;;;4.79;31.90;101581.28;5302915;27;33031;-96
2022/03/22 01:43:15;;;;;;;;;;;;;;;4.90;31.86;101579.16;5297637;27;33214;-96
2022/03/22 01:46:04;;;;;;;;;;;;;;;4.92;32.20;101578.38;5317820;27;35149;-95
2022/03/22 01:49:14;;;;;;;;;;;;;;;4.89;32.19;101577.41;5298791;27;34055;-96
2022/03/22 01:52:24;;;;;;;;;;;;;;;4.90;32.02;101574.91;5317819;27;33545;-96
2022/03/22 01:56:13;;;;;;;;;;;;;;;4.99;31.97;101574.38;5298318;27;33155;-96
2022/03/22 01:59:22;;;;;;;;;;;;;;;4.92;32.00;101572.37;5299527;27;33234;-96
2022/03/22 02:05:58;;;;;;;;;;;;;;;4.74;32.54;101572.53;5315735;27;32308;-96
2022/03/22 02:09:29;;;;;;;;;;;;;;;4.45;33.03;101567.06;5297782;27;34170;-96
2022/03/22 02:12:38;;;;;;;;;;;;;;;4.83;32.20;101567.75;5301841;27;33410;-96
2022/03/22 02:15:27;;;;;;;;;;;;;;;4.18;33.19;101555.59;5303079;27;32792;-96
2022/03/22 02:18:56;;;;;;;;;;;;;;;4.45;32.85;101555.91;5303239;27;33426;-96
2022/03/22 02:22:25;;;;;;;;;;;;;;;4.42;33.22;101556.66;5302909;27;33477;-96
2022/03/22 02:25:17;;;;;;;;;;;;;;;4.63;32.60;101556.63;5298782;27;34953;-96
2022/03/22 02:28:07;;;;;;;;;;;;;;;4.47;33.15;101559.41;5304474;27;32795;-96
2022/03/22 02:31:35;;;;;;;;;;;;;;;4.52;33.00;101557.91;5296784;27;31698;-96
2022/03/22 02:34:44;;;;;;;;;;;;;;;4.51;32.91;101551.00;5297081;27;33667;-96
2022/03/22 02:38:13;;;;;;;;;;;;;;;4.57;32.72;101558.97;5297220;27;33323;-96
2022/03/22 02:41:27;;;;;;;;;;;;;;;4.36;32.78;101556.38;5297254;27;33049;-96
2022/03/22 02:44:00;;;;;;;;;;;;;;;4.64;32.43;101553.28;5296615;27;34742;-96
2022/03/22 02:47:09;;;;;;;;;;;;;;;4.53;32.38;101557.09;5291538;27;33633;-96
2022/03/22 02:50:40;;;;;;;;;;;;;;;4.44;32.54;101554.12;5296483;27;33427;-96
2022/03/22 02:53:52;;;;;;;;;;;;;;;4.40;32.70;101555.72;5296833;27;33091;-96
2022/03/22 02:56:45;;;;;;;;;;;;;;;4.59;32.16;101557.34;5315481;27;33221;-95
2022/03/22 02:59:34;;;;;;;;;;;;;;;4.34;32.16;101559.69;5297020;27;34161;-96
2022/03/22 03:02:24;;;;;;;;;;;;;;;4.46;32.38;101555.94;5297182;27;34095;-96
2022/03/22 03:05:52;;;;;;;;;;;;;;;4.55;32.25;101560.59;5316435;27;34340;-96
2022/03/22 03:09:21;;;;;;;;;;;;;;;4.44;32.50;101562.72;5297002;27;32093;-96
2022/03/22 03:12:32;;;;;;;;;;;;;;;4.38;32.92;101559.03;5296819;27;33139;-96
2022/03/22 03:15:22;;;;;;;;;;;;;;;4.59;32.37;101570.22;5316430;27;33802;-96
2022/03/22 03:18:13;;;;;;;;;;;;;;;4.31;32.97;101567.28;5316949;27;34709;-96
2022/03/22 03:21:40;;;;;;;;;;;;;;;4.59;32.71;101567.62;5296813;27;33189;-96
2022/03/22 03:25:09;;;;;;;;;;;;;;;4.40;32.82;101568.56;5295944;27;33293;-96
2022/03/22 03:28:02;;;;;;;;;;;;;;;4.18;33.19;101569.34;5317132;27;34468;-96
2022/03/22 03:31:30;;;;;;;;;;;;;;;4.52;32.59;101575.00;5296882;27;33085;-96
2022/03/22 03:34:40;;;;;;;;;;;;;;;4.02;33.69;101574.62;5296928;27;32228;-96
2022/03/22 03:37:32;;;;;;;;;;;;;;;4.41;33.10;101572.00;5296666;27;33126;-96
2022/03/22 03:43:48;;;;;;;;;;;;;;;4.46;33.13;101570.50;5316306;27;34843;-96
2022/03/22 03:47:17;;;;;;;;;;;;;;;4.36;33.17;101563.22;5296869;27;32221;-96
2022/03/22 03:50:45;;;;;;;;;;;;;;;4.06;34.05;101566.25;5296419;27;33692;-96
2022/03/22 03:53:36;;;;;;;;;;;;;;;4.40;33.32;101565.13;5322242;27;34129;-96
2022/03/22 03:57:05;;;;;;;;;;;;;;;4.39;33.70;101565.91;5302507;27;33091;-96
2022/03/22 04:00:37;;;;;;;;;;;;;;;4.31;33.67;101563.03;5311500;27;111478;-96
2022/03/22 04:03:06;;;;;;;;;;;;;;;4.16;33.98;101567.53;5288253;27;34237;-96
2022/03/22 04:05:55;;;;;;;;;;;;;;;4.08;34.08;101572.31;5302653;27;33207;-96
2022/03/22 04:08:46;;;;;;;;;;;;;;;4.10;34.28;101570.69;5296832;27;32933;-96
2022/03/22 04:12:14;;;;;;;;;;;;;;;4.54;33.95;101576.81;5302189;27;33253;-96
2022/03/22 04:16:04;;;;;;;;;;;;;;;4.20;34.54;101582.22;5297136;27;33558;-96
2022/03/22 04:18:54;;;;;;;;;;;;;;;4.29;34.42;101580.06;5296664;27;33357;-96
2022/03/22 04:22:04;;;;;;;;;;;;;;;4.33;34.55;101584.53;5295758;27;32891;-96
2022/03/22 04:24:54;;;;;;;;;;;;;;;4.25;34.30;101581.63;5296091;27;33383;-96
2022/03/22 04:32:45;;;;;;;;;;;;;;;4.36;33.52;101588.91;5296124;27;34267;-96
2022/03/22 04:36:14;;;;;;;;;;;;;;;4.00;33.93;101601.91;5296805;27;33293;-96
2022/03/22 04:39:43;;;;;;;;;;;;;;;4.10;34.01;101598.06;5296478;27;33702;-96
2022/03/22 04:42:53;;;;;;;;;;;;;;;4.13;33.28;101599.09;5303292;27;34138;-96
2022/03/22 04:45:43;;;;;;;;;;;;;;;4.14;33.55;101600.84;5303008;27;33257;-96
2022/03/22 04:49:32;;;;;;;;;;;;;;;3.91;34.09;101601.50;5303644;27;33359;-96
2022/03/22 04:58:15;;;;;;;;;;;;;;;4.31;33.48;101605.84;5303757;27;33500;-96
2022/03/22 05:01:25;;;;;;;;;;;;;;;3.58;34.36;101609.47;5303083;27;32641;-96
2022/03/22 05:04:55;;;;;;;;;;;;;;;4.07;33.61;101604.81;5323288;27;34066;-96
2022/03/22 05:08:05;;;;;;;;;;;;;;;4.18;33.78;101607.88;5322612;26;33463;-96
2022/03/22 05:10:56;;;;;;;;;;;;;;;4.21;33.26;101602.87;5297674;27;33108;-96
2022/03/22 05:14:50;;;;;;;;;;;;;;;4.14;34.02;101605.97;5316674;27;36506;-96
2022/03/22 05:17:56;;;;;;;;;;;;;;;4.53;33.10;101610.19;5296460;27;31699;-96
2022/03/22 05:21:45;;;;;;;;;;;;;;;4.72;32.89;101610.16;5315311;27;33150;-96
2022/03/22 05:24:54;;;;;;;;;;;;;;;4.59;32.88;101616.47;5317703;27;33800;-96
2022/03/22 05:28:03;;;;;;;;;;;;;;;4.36;33.24;101609.47;5297749;27;33049;-96
2022/03/22 05:31:14;;;;;;;;;;;;;;;4.44;33.32;101615.81;5297407;27;32696;-96
2022/03/22 05:34:44;;;;;;;;;;;;;;;4.72;32.45;101611.84;5300721;27;33067;-96
2022/03/22 05:37:54;;;;;;;;;;;;;;;4.82;32.63;101611.41;5297036;27;33239;-96
2022/03/22 05:41:47;;;;;;;;;;;;;;;4.83;32.31;101608.00;5303397;27;33143;-96
2022/03/22 05:44:36;;;;;;;;;;;;;;;4.90;32.59;101616.06;5299372;27;34615;-96
2022/03/22 05:47:26;;;;;;;;;;;;;;;4.80;32.91;101618.16;5302841;27;33386;-96
2022/03/22 05:51:01;;;;;;;;;;;;;;;5.08;32.52;101615.91;5304229;27;33049;-96
2022/03/22 05:54:32;;;;;;;;;;;;;;;5.09;32.56;101624.50;5299512;27;34317;-94
2022/03/22 05:57:20;;;;;;;;;;;;;;;5.08;32.17;101625.31;5314768;27;33251;-94
2022/03/22 05:59:53;;;;;;;;;;;;;;;5.48;31.46;101627.75;5302183;27;33940;-94
2022/03/22 06:02:46;;;;;;;;;;;;;;;5.56;30.80;101633.22;5320964;27;34684;-95
2022/03/22 06:05:37;;;;;;;;;;;;;;;5.98;30.06;101640.81;5314862;27;33755;-95
2022/03/22 06:08:25;;;;;;;;;;;;;;;5.95;30.88;101638.13;5294975;27;32864;-94
2022/03/22 06:11:24;;;;;;;;;;;;;;;6.22;30.71;101634.81;5315146;27;33840;-94
2022/03/22 06:14:30;;;;;;;;;;;;;;;6.05;31.39;101639.34;5314688;27;33812;-94
2022/03/22 06:17:18;;;;;;;;;;;;;;;6.48;30.36;101635.72;5295037;27;32489;-94
2022/03/22 06:20:07;;;;;;;;;;;;;;;6.36;30.59;101637.06;5314566;27;33029;-94
2022/03/22 06:22:38;;;;;;;;;;;;;;;6.71;30.13;101636.50;5315396;27;34532;-94
2022/03/22 06:25:08;;;;;;;;;;;;;;;6.90;29.71;101638.00;5295982;27;32617;-93
2022/03/22 06:27:47;;;;;;;;;;;;;;;6.83;30.32;101632.63;5315602;27;33565;-94
2022/03/22 06:30:17;;;;;;;;;;;;;;;7.11;29.71;101648.16;5320073;27;32710;-95
2022/03/22 06:32:54;;;;;;;;;;;;;;;6.88;30.45;101639.66;5275438;27;33673;-95
2022/03/22 06:35:43;;;;;;;;;;;;;;;7.23;30.03;101649.41;5315478;27;33972;-94
2022/03/22 06:38:32;;;;;;;;;;;;;;;7.39;29.67;101647.31;5314805;27;33296;-94
2022/03/22 06:41:21;;;;;;;;;;;;;;;7.56;29.27;101640.94;5313680;27;32974;-94
2022/03/22 06:44:12;;;;;;;;;;;;;;;7.75;29.11;101644.09;5314595;27;33638;-95
2022/03/22 06:46:41;;;;;;;;;;;;;;;7.91;28.61;101649.75;5292888;27;33419;-94
2022/03/22 06:49:31;;;;;;;;;;;;;;;8.04;28.53;101652.69;5314669;27;33781;-94
2022/03/22 06:52:04;;;;;;;;;;;;;;;8.10;28.30;101647.72;5296833;27;33478;-96
2022/03/22 06:55:14;;;;;;;;;;;;;;;8.42;28.21;101655.53;5320312;27;34462;-94
2022/03/22 06:57:59;;;;;;;;;;;;;;;8.47;28.41;101647.03;5320157;27;33983;-95
2022/03/22 07:01:05;;;;;;;;;;;;;;;8.60;28.42;101652.53;5321249;27;34378;-94
2022/03/22 07:03:36;;;;;;;;;;;;;;;8.91;28.02;101655.06;5315731;27;32902;-95
2022/03/22 07:06:24;;;;;;;;;;;;;;;8.71;28.16;101653.69;5292744;26;32447;-95
2022/03/22 07:09:02;;;;;;;;;;;;;;;9.18;27.88;101652.31;5312150;27;33489;-95
2022/03/22 07:11:49;;;;;;;;;;;;;;;9.52;26.66;101649.59;5313699;27;34311;-94
2022/03/22 07:14:18;;;;;;;;;;;;;;;9.27;28.18;101650.75;5294074;27;33440;-95
2022/03/22 07:17:10;;;;;;;;;;;;;;;9.71;26.57;101649.19;5314549;27;33706;-94
2022/03/22 07:19:58;;;;;;;;;;;;;;;10.01;26.50;101653.28;5313287;27;35112;-94
2022/03/22 07:22:47;;;;;;;;;;;;;;;9.88;26.40;101656.44;5294652;27;32397;-94
2022/03/22 07:25:39;;;;;;;;;;;;;;;9.74;26.97;101654.44;5321528;27;32939;-94
2022/03/22 07:28:09;;;;;;;;;;;;;;;10.00;26.62;101655.00;5294760;27;34033;-95
2022/03/22 07:31:21;;;;;;;;;;;;;;;10.09;26.01;101651.69;5321303;27;35242;-94
2022/03/22 07:34:36;;;;;;;;;;;;;;;10.26;25.65;101659.81;5315319;27;34175;-94
2022/03/22 07:37:29;;;;;;;;;;;;;;;9.93;25.42;101650.53;5295038;27;32323;-95
2022/03/22 07:40:33;;;;;;;;;;;;;;;10.46;24.94;101653.34;5301892;27;32821;-94
2022/03/22 07:43:23;;;;;;;;;;;;;;;9.94;24.97;101659.16;5294313;27;32713;-95
2022/03/22 07:46:12;;;;;;;;;;;;;;;10.39;25.10;101660.94;5314015;27;33971;-95
2022/03/22 07:54:53;;;;;;;;;;;;;;;11.18;24.46;101655.41;5318303;27;34243;-95
2022/03/22 07:57:37;;;;;;;;;;;;;;;11.20;24.21;101656.31;5314802;27;33408;-95
2022/03/22 08:00:07;;;;;;;;;;;;;;;11.39;24.27;101655.75;5315553;27;33415;-94
2022/03/22 08:02:56;;;;;;;;;;;;;;;11.59;23.46;101658.62;5315755;27;34498;-95
2022/03/22 08:05:26;;;;;;;;;;;;;;;11.68;23.83;101657.91;5301796;27;33864;-95
2022/03/22 08:08:17;;;;;;;;;;;;;;;11.73;23.60;101651.91;5314239;26;34192;-95
2022/03/22 08:11:06;;;;;;;;;;;;;;;11.63;23.34;101654.34;5315350;27;33161;-95
2022/03/22 08:13:41;;;;;;;;;;;;;;;11.51;24.10;101660.25;5316789;27;33783;-95
2022/03/22 08:16:14;;;;;;;;;;;;;;;11.01;23.77;101653.41;5316100;27;33668;-94
2022/03/22 08:18:59;;;;;;;;;;;;;;;11.85;23.50;101652.91;5296835;27;33153;-96
2022/03/22 08:22:27;;;;;;;;;;;;;;;11.78;23.44;101649.34;5296021;27;32142;-95
2022/03/22 08:25:07;;;;;;;;;;;;;;;11.52;23.37;101644.69;5296296;27;32667;-95
2022/03/22 08:28:16;;;;;;;;;;;;;;;11.89;23.48;101641.75;5295100;27;33856;-94
2022/03/22 08:31:06;;;;;;;;;;;;;;;11.57;23.61;101639.53;5315993;27;34326;-95
2022/03/22 08:34:14;;;;;;;;;;;;;;;12.01;23.45;101647.09;5295683;27;32489;-95
2022/03/22 08:36:44;;;;;;;;;;;;;;;12.69;22.30;101635.69;5315562;27;34941;-95
2022/03/22 08:39:52;;;;;;;;;;;;;;;12.75;21.85;101637.47;5314989;27;33796;-94
2022/03/22 08:42:26;;;;;;;;;;;;;;;12.64;22.05;101632.16;5322409;27;34426;-95
2022/03/22 08:44:55;;;;;;;;;;;;;;;12.50;22.32;101642.44;5300586;27;32196;-95
2022/03/22 08:48:09;;;;;;;;;;;;;;;12.79;21.39;101628.81;5277156;27;33330;-94
2022/03/22 08:50:55;;;;;;;;;;;;;;;13.19;21.24;101629.13;5314875;27;34138;-94
2022/03/22 08:53:40;;;;;;;;;;;;;;;12.89;21.61;101630.63;5315893;27;35029;-94
2022/03/22 08:56:10;;;;;;;;;;;;;;;12.67;21.90;101632.19;5296132;27;35780;-95
2022/03/22 08:58:41;;;;;;;;;;;;;;;12.49;21.99;101619.87;5315647;27;34075;-95
2022/03/22 09:01:14;;;;;;;;;;;;;;;12.69;22.01;101620.06;5295975;27;33140;-96
2022/03/22 09:06:58;;;;;;;;;;;;;;;13.29;21.19;101619.66;5320107;26;33768;-93
2022/03/22 09:09:47;;;;;;;;;;;;;;;13.15;21.74;101616.94;5299961;27;32767;-95
2022/03/22 09:12:57;;;;;;;;;;;;;;;13.08;21.53;101616.03;5301355;27;34302;-96
2022/03/22 09:15:29;;;;;;;;;;;;;;;13.52;20.79;101612.84;5313695;27;33782;-94
2022/03/22 09:18:58;;;;;;;;;;;;;;;13.81;20.58;101610.38;5321762;27;33732;-96
2022/03/22 09:21:48;;;;;;;;;;;;;;;13.74;20.90;101615.59;5321383;27;34197;-94
2022/03/22 09:24:56;;;;;;;;;;;;;;;13.66;20.87;101611.19;5301952;27;32896;-95
2022/03/22 09:28:06;;;;;;;;;;;;;;;14.10;20.45;101604.41;5296066;27;32200;-96
2022/03/22 09:31:35;;;;;;;;;;;;;;;14.09;20.81;101595.72;5302253;27;32420;-93
2022/03/22 09:34:25;;;;;;;;;;;;;;;14.34;19.78;101598.38;5322105;27;34069;-95
2022/03/22 09:37:17;;;;;;;;;;;;;;;13.76;20.63;101593.00;5323153;27;33463;-95
2022/03/22 09:39:46;;;;;;;;;;;;;;;14.33;20.62;101590.53;5315465;27;33975;-95
2022/03/22 09:42:45;;;;;;;;;;;;;;;14.47;20.56;101587.09;5278370;27;31720;-95
2022/03/22 09:45:52;;;;;;;;;;;;;;;14.50;19.94;101589.69;5315133;27;34288;-96
2022/03/22 09:49:22;;;;;;;;;;;;;;;13.73;20.36;101592.97;5274588;27;33341;-96
2022/03/22 09:52:10;;;;;;;;;;;;;;;14.33;19.85;101583.59;5286687;27;33862;-96
2022/03/22 09:54:42;;;;;;;;;;;;;;;14.77;19.49;101590.63;5316858;27;33444;-95
2022/03/22 09:57:31;;;;;;;;;;;;;;;14.72;19.46;101585.38;5316976;27;34164;-96
2022/03/22 10:00:39;;;;;;;;;;;;;;;14.86;18.88;101580.16;5316899;27;34225;-95
2022/03/22 10:03:37;;;;;;;;;;;;;;;15.01;19.06;101573.19;5296108;27;34187;-94
2022/03/22 10:06:32;;;;;;;;;;;;;;;15.04;19.34;101581.03;5296407;26;32258;-94
2022/03/22 10:09:48;;;;;;;;;;;;;;;15.00;19.06;101576.66;5296834;27;33834;-94
2022/03/22 10:13:17;;;;;;;;;;;;;;;14.92;18.99;101572.31;5314870;27;34006;-94
2022/03/22 10:16:07;;;;;;;;;;;;;;;14.44;19.46;101565.31;5277024;27;33220;-95
2022/03/22 10:19:42;;;;;;;;;;;;;;;15.07;18.64;101567.94;5295721;27;32231;-96
2022/03/22 10:23:36;;;;;;;;;;;;;;;15.40;18.74;101560.91;5323882;27;33773;-95
2022/03/22 10:26:07;;;;;;;;;;;;;;;15.55;18.30;101566.06;5320718;27;34432;-96
2022/03/22 10:29:36;;;;;;;;;;;;;;;15.51;18.02;101554.75;5302928;27;33028;-96
2022/03/22 10:32:50;;;;;;;;;;;;;;;15.03;19.05;101559.25;5303024;27;32964;-95
2022/03/22 10:35:37;;;;;;;;;;;;;;;15.18;18.24;101547.88;5321456;27;34177;-95
2022/03/22 10:38:07;;;;;;;;;;;;;;;15.38;18.66;101557.41;5297418;27;34312;-94
2022/03/22 10:40:57;;;;;;;;;;;;;;;15.39;18.47;101544.34;5298173;27;33238;-96
2022/03/22 10:44:26;;;;;;;;;;;;;;;15.79;17.67;101545.06;5295804;27;31973;-95
2022/03/22 10:46:56;;;;;;;;;;;;;;;15.88;18.16;101532.81;5296581;27;32567;-95
2022/03/22 10:49:27;;;;;;;;;;;;;;;15.94;17.86;101525.78;5315274;27;34723;-96
2022/03/22 10:52:52;;;;;;;;;;;;;;;16.10;18.40;101529.19;5296026;27;32862;-95
2022/03/22 10:56:02;;;;;;;;;;;;;;;15.71;17.87;101525.06;5315711;27;32967;-95
2022/03/22 10:58:34;;;;;;;;;;;;;;;16.04;17.90;101516.13;5295781;27;34142;-96
2022/03/22 11:02:01;;;;;;;;;;;;;;;16.18;17.51;101516.03;5316005;27;34357;-96
2022/03/22 11:05:27;;;;;;;;;;;;;;;16.32;17.34;101502.84;5296339;27;33292;-94
2022/03/22 11:08:40;;;;;;;;;;;;;;;15.89;18.04;101508.37;5295563;27;32616;-95
2022/03/22 11:11:35;;;;;;;;;;;;;;;15.72;17.75;101495.38;5315311;27;35199;-95
2022/03/22 11:14:44;;;;;;;;;;;;;;;16.09;17.17;101495.16;5296001;27;34877;-95
2022/03/22 11:17:34;;;;;;;;;;;;;;;16.87;16.46;101491.91;5315043;27;34111;-94
2022/03/22 11:20:23;;;;;;;;;;;;;;;16.04;16.84;101483.84;5276038;27;34578;-96
2022/03/22 11:23:52;;;;;;;;;;;;;;;16.87;16.66;101494.50;5316853;27;35112;-96
2022/03/22 11:27:03;;;;;;;;;;;;;;;16.73;16.77;101486.75;5315128;27;35166;-95
2022/03/22 11:30:32;;;;;;;;;;;;;;;16.89;16.46;101484.00;5293819;27;32610;-94
2022/03/22 11:36:27;;;;;;;;;;;;;;;16.95;16.73;101468.22;5261609;27;32618;-96
2022/03/22 11:43:06;;;;;;;;;;;;;;;16.63;16.65;101466.75;5295528;27;34174;-95
2022/03/22 11:46:35;;;;;;;;;;;;;;;16.67;16.84;101467.59;5293731;27;32367;-95
2022/03/22 11:50:08;;;;;;;;;;;;;;;16.97;16.24;101463.81;5300818;27;34076;-94
2022/03/22 11:53:01;;;;;;;;;;;;;;;17.42;16.21;101453.63;5300681;27;34335;-95
2022/03/22 11:56:10;;;;;;;;;;;;;;;17.11;16.00;101450.56;5322044;27;35469;-96
2022/03/22 11:59:22;;;;;;;;;;;;;;;17.25;15.94;101449.50;5320654;27;32758;-95
2022/03/22 12:02:16;;;;;;;;;;;;;;;16.97;16.33;101440.22;5320892;27;34089;-95
2022/03/22 12:05:44;;;;;;;;;;;;;;;17.68;16.06;101435.78;5295181;27;33299;-95
2022/03/22 12:08:15;;;;;;;;;;;;;;;17.50;16.31;101433.44;5301312;27;33481;-96
2022/03/22 12:11:06;;;;;;;;;;;;;;;17.69;16.68;101428.78;5322002;27;34392;-96
2022/03/22 12:13:56;;;;;;;;;;;;;;;18.04;15.98;101423.00;5298536;27;33131;-96
2022/03/22 12:17:15;;;;;;;;;;;;;;;17.95;16.30;101422.28;5314295;27;33877;-94
2022/03/22 12:20:23;;;;;;;;;;;;;;;17.94;16.68;101418.78;5315849;27;33804;-96
2022/03/22 12:23:12;;;;;;;;;;;;;;;18.15;16.09;101409.69;5315398;27;32892;-95
2022/03/22 12:26:02;;;;;;;;;;;;;;;18.08;16.28;101413.31;5314876;27;34062;-95
2022/03/22 12:28:31;;;;;;;;;;;;;;;17.99;16.17;101405.59;5295006;27;34235;-96
2022/03/22 12:31:48;;;;;;;;;;;;;;;18.18;16.05;101400.91;5297360;27;33097;-94
2022/03/22 12:34:20;;;;;;;;;;;;;;;18.51;15.85;101386.28;5296195;27;32892;-95
2022/03/22 12:37:11;;;;;;;;;;;;;;;18.49;15.96;101388.94;5316199;27;34091;-94
2022/03/22 12:39:41;;;;;;;;;;;;;;;18.59;15.92;101378.25;5315940;27;35040;-95
2022/03/22 12:42:10;;;;;;;;;;;;;;;18.95;15.34;101369.66;5321766;27;34127;-95
2022/03/22 12:44:39;;;;;;;;;;;;;;;19.18;15.20;101369.16;5294918;27;32550;-95
2022/03/22 12:47:27;;;;;;;;;;;;;;;19.34;15.22;101374.06;5298049;27;33363;-95
2022/03/22 12:49:57;;;;;;;;;;;;;;;18.82;15.66;101367.28;5296732;27;33949;-95
2022/03/22 12:52:28;;;;;;;;;;;;;;;18.97;15.19;101364.38;5314047;27;34087;-95
2022/03/22 12:54:58;;;;;;;;;;;;;;;18.62;15.79;101362.41;5320397;27;33002;-94
2022/03/22 12:57:29;;;;;;;;;;;;;;;19.32;15.11;101352.19;5302404;27;34273;-96
2022/03/22 12:59:57;;;;;;;;;;;;;;;19.59;15.23;101350.66;5316170;27;33207;-95
2022/03/22 13:02:26;;;;;;;;;;;;;;;19.68;15.49;101344.38;5314860;27;34964;-95
2022/03/22 13:04:55;;;;;;;;;;;;;;;19.50;15.52;101335.09;5293690;27;33177;-95
2022/03/22 13:07:26;;;;;;;;;;;;;;;18.95;15.51;101338.09;5322101;26;34114;-95
2022/03/22 13:12:41;;;;;;;;;;;;;;;19.62;15.28;101333.06;5228157;27;32664;-95
2022/03/22 13:15:09;;;;;;;;;;;;;;;19.15;15.79;101326.25;5247926;27;33314;-95
2022/03/22 13:17:42;;;;;;;;;;;;;;;19.88;15.55;101321.00;5247872;27;33917;-96
2022/03/22 13:20:17;;;;;;;;;;;;;;;20.30;15.23;101330.47;5230196;27;32931;-96
2022/03/22 13:22:51;;;;;;;;;;;;;;;19.94;14.71;101323.50;5253916;27;33956;-95
2022/03/22 13:25:30;;;;;;;;;;;;;;;20.14;14.64;101322.09;5236254;27;34075;-96
2022/03/22 13:28:08;;;;;;;;;;;;;;;20.28;14.83;101319.97;5228831;27;32785;-96
2022/03/22 13:30:38;;;;;;;;;;;;;;;20.70;14.98;101306.50;5226115;27;33562;-95
2022/03/22 13:33:11;;;;;;;;;;;;;;;20.80;15.19;101317.63;5229114;27;32500;-96
2022/03/22 13:35:51;;;;;;;;;;;;;;;21.24;15.26;101305.72;5231213;27;32515;-95
2022/03/22 13:38:22;;;;;;;;;;;;;;;21.27;14.73;101305.63;5210644;27;32930;-95
2022/03/22 13:40:53;;;;;;;;;;;;;;;20.91;15.51;101302.34;5254630;27;33861;-96
2022/03/22 13:43:23;;;;;;;;;;;;;;;20.86;15.56;101305.13;5247407;27;33518;-94
2022/03/22 13:46:02;;;;;;;;;;;;;;;20.49;14.16;101300.06;5248228;27;33755;-96
2022/03/22 13:48:55;;;;;;;;;;;;;;;21.69;14.30;101299.00;5225385;27;34284;-96
2022/03/22 13:51:30;;;;;;;;;;;;;;;22.09;13.85;101295.88;5312765;27;34872;-96
2022/03/22 13:54:31;;;;;;;;;;;;;;;22.32;13.53;101291.56;5319853;27;34926;-96
2022/03/22 13:57:25;;;;;;;;;;;;;;;22.49;12.83;101283.00;5316797;27;32701;-96
2022/03/22 14:00:01;;;;;;;;;;;;;;;21.80;13.24;101288.09;5311267;27;35676;-96
2022/03/22 14:02:31;;;;;;;;;;;;;;;22.10;13.64;101280.87;5295510;27;32803;-96
2022/03/22 14:05:00;;;;;;;;;;;;;;;22.28;13.45;101280.25;5314814;27;34278;-95
2022/03/22 14:07:30;;;;;;;;;;;;;;;22.33;13.26;101278.28;5283922;27;33340;-96
2022/03/22 14:10:05;;;;;;;;;;;;;;;22.25;13.40;101275.03;5308350;27;36450;-96
2022/03/22 14:12:34;;;;;;;;;;;;;;;22.11;13.43;101277.31;5293438;27;33903;-96
2022/03/22 14:15:02;;;;;;;;;;;;;;;22.34;13.08;101271.22;5300716;27;33053;-96
2022/03/22 14:17:31;;;;;;;;;;;;;;;22.14;13.28;101267.47;5294847;27;33647;-96
2022/03/22 14:20:21;;;;;;;;;;;;;;;22.60;13.58;101267.59;5314705;27;34344;-94
2022/03/22 14:22:51;;;;;;;;;;;;;;;22.39;13.43;101256.03;5295554;27;33338;-95
2022/03/22 14:25:21;;;;;;;;;;;;;;;22.13;13.24;101243.72;5314496;27;34096;-95
2022/03/22 14:27:52;;;;;;;;;;;;;;;21.27;13.68;101244.06;5314922;27;34007;-96
2022/03/22 14:30:23;;;;;;;;;;;;;;;21.98;13.65;101242.50;5322656;27;34998;-96
2022/03/22 14:33:14;;;;;;;;;;;;;;;22.03;13.44;101237.91;5315242;27;34149;-96
2022/03/22 14:36:21;;;;;;;;;;;;;;;22.02;13.37;101235.34;5321918;27;34283;-95
2022/03/22 14:39:17;;;;;;;;;;;;;;;22.19;13.49;101224.16;5314818;27;32965;-95
2022/03/22 14:41:48;;;;;;;;;;;;;;;21.28;14.08;101233.44;5298019;27;33721;-95
2022/03/22 14:44:21;;;;;;;;;;;;;;;21.30;13.88;101220.19;5294980;27;32542;-93
2022/03/22 14:46:53;;;;;;;;;;;;;;;22.00;13.72;101226.63;5319145;27;34200;-96
2022/03/22 14:49:24;;;;;;;;;;;;;;;22.66;13.04;101219.72;5277880;27;33369;-96
2022/03/22 14:55:04;;;;;;;;;;;;;;;22.48;12.93;101212.53;5299096;27;32781;-95
2022/03/22 15:00:21;;;;;;;;;;;;;;;23.12;12.04;101215.28;5314831;27;34370;-94
2022/03/22 15:02:51;;;;;;;;;;;;;;;22.42;12.86;101212.75;5297297;27;36062;-95
2022/03/22 15:06:03;;;;;;;;;;;;;;;22.47;12.96;101208.12;5315936;27;34735;-95
2022/03/22 15:08:35;;;;;;;;;;;;;;;22.40;12.48;101204.88;5296131;27;33716;-96
2022/03/22 15:11:04;;;;;;;;;;;;;;;22.38;12.43;101198.78;5295519;27;32394;-95
2022/03/22 15:13:36;;;;;;;;;;;;;;;21.58;12.87;101199.03;5298087;27;33138;-96
2022/03/22 15:16:08;;;;;;;;;;;;;;;20.79;13.58;101198.09;5292519;27;32843;-95
2022/03/22 15:18:56;;;;;;;;;;;;;;;21.03;13.53;101195.56;5314543;27;34943;-95
2022/03/22 15:21:46;;;;;;;;;;;;;;;20.49;14.06;101184.06;5317835;27;33284;-96
2022/03/22 15:24:59;;;;;;;;;;;;;;;20.60;14.20;101189.03;5295834;27;34293;-96
2022/03/22 15:27:51;;;;;;;;;;;;;;;20.18;14.28;101182.34;5294011;27;33921;-96
2022/03/22 15:30:45;;;;;;;;;;;;;;;19.62;14.76;101187.41;5295009;27;32886;-95
2022/03/22 15:34:13;;;;;;;;;;;;;;;19.72;15.14;101188.03;5314348;27;32862;-96
2022/03/22 15:37:02;;;;;;;;;;;;;;;19.72;14.67;101186.25;5314772;27;34120;-95
2022/03/22 15:40:12;;;;;;;;;;;;;;;20.11;14.81;101183.41;5294463;27;33092;-95
2022/03/22 15:43:41;;;;;;;;;;;;;;;19.91;14.52;101183.09;5296894;27;34326;-96
2022/03/22 15:47:12;;;;;;;;;;;;;;;19.21;15.31;101185.81;5297995;27;32215;-95
2022/03/22 15:50:04;;;;;;;;;;;;;;;19.42;15.44;101195.78;5300569;27;34017;-95
2022/03/22 15:52:36;;;;;;;;;;;;;;;19.38;15.39;101188.91;5313159;27;33738;-96